x

West Santa Barbara 38 Nm West Of Santa Barbara, Ca (46054) Wave Buoy

4:50am - Sat 24th Jun 2017 All times are PDT. -7 hours from GMT.

  • Sig Wave height 4.9ft
  • Swell Direction
  • Peak Period 11s
  • Average Period 6s
  • Wind
    20mph, 27mph gusts
  • Sea Temp 58°f
  • Air Temp 57°f
  • Sea Pressure 1012.4mb
  • West Santa Barbara  38 Nm West Of Santa Barbara, Ca
  • West Santa Barbara  38 Nm West Of Santa Barbara, Ca

More Historic Weather Station data

Upgrade to MSW Pro to gain access to the past 30 days of data for over 8000 Wavebouys and Weather Stations around the globe.

Join Pro

Comparision Forecast

View Surf forecast
   
Sat 06/24 4:50am 5ft 11s 6s 20 27 mph 1012.4mb 58f 57f
4:40am  -   -   -  22 29 mph 1011.6mb 58f 57f
4:30am  -   -   -  22 29 mph 1012mb 58f 57f
4:20am  -   -   -  25 29 mph 1011.5mb 58f 57f
4:10am  -   -   -  20 27 mph 1012mb 57f 57f
4:00am  -   -   -  20 25 mph 1012.3mb 58f 57f
3:50am 5ft 16s 6s 20 25 mph 1012.6mb 58f 57f
3:40am 5ft  -  6s 20 25 mph 1012.1mb 58f 57f
3:30am  -   -   -  20 25 mph 1012.5mb 58f 57f
3:20am  -   -   -  20 25 mph 1012.5mb 58f 57f
3:10am  -   -   -  20 25 mph 1012.5mb 58f 57f
3:00am  -   -   -  18 22 mph 1013mb 58f 57f
2:50am 5ft 16s 6s 16 20 mph 1013.3mb 58f 57f
2:40am 5ft  -  6s 18 20 mph 1013mb 58f 57f
2:30am  -   -   -  20 22 mph 1013mb 58f 57f
2:20am  -   -   -  18 22 mph 1012.9mb 58f 57f
2:10am  -   -   -  18 22 mph 1013.1mb 58f 57f
2:00am  -   -   -  18 25 mph 1013.5mb 58f 57f
1:50am 5ft 16s 6s 20 25 mph 1013mb 58f 57f
1:40am 5ft  -  6s 20 25 mph 1013.1mb 58f 57f
1:30am  -   -   -  22 25 mph 1013mb 58f 57f
1:20am  -   -   -  20 25 mph 1013.1mb 57f 57f
1:10am  -   -   -  20 25 mph 1013mb 57f 57f
1:00am  -   -   -  22 27 mph 1013mb 57f 56f
12:50am 5ft 11s 6s 20 25 mph 1013mb 57f 56f
12:40am 5ft  -  6s 20 25 mph 1013.5mb 57f 56f
12:30am  -   -   -  20 25 mph 1013mb 57f 56f
12:20am  -   -   -  20 27 mph 1013mb 58f 57f
12:10am  -   -   -  22 27 mph 1012.5mb 58f 57f
12:00am  -   -   -  22 27 mph 1012.5mb 58f 57f
Fri 06/23 11:50pm 5ft 16s 6s 20 27 mph 1012.9mb 58f 57f
11:40pm 5ft  -  6s 20 25 mph 1012.8mb 58f 57f
11:30pm  -   -   -  20 25 mph 1012.8mb 58f 57f
11:20pm  -   -   -  20 25 mph 1012.9mb 58f 57f
11:10pm  -   -   -  20 27 mph 1012.6mb 58f 56f
11:00pm  -   -   -  20 27 mph 1012.3mb 58f 57f
10:50pm 5ft 16s 6s 20 27 mph 1012mb 58f 57f
10:40pm 5ft  -  6s 22 27 mph 1012mb 58f 57f
10:30pm  -   -   -  22 29 mph 1012.3mb 58f 57f
10:20pm  -   -   -  22 29 mph 1012.4mb 58f 57f
10:10pm  -   -   -  20 25 mph 1012.4mb 58f 57f
10:00pm  -   -   -  22 29 mph 1012.5mb 58f 57f
9:50pm 5ft 10s 6s 25 29 mph 1012.4mb 59f 58f
9:40pm  -   -   -  25 29 mph 1012.3mb 59f 58f
9:30pm  -   -   -  22 27 mph 1012.5mb 59f 58f
9:20pm  -   -   -  22 27 mph 1012.5mb 59f 58f
9:10pm  -   -   -  20 25 mph 1012.6mb 59f 58f
9:00pm  -   -   -  18 22 mph 1013mb 59f 58f
8:50pm 5ft 16s 6s 18 22 mph 1013.1mb 59f 58f
8:40pm 5ft  -  6s 18 22 mph 1013.1mb 60f 58f
8:30pm  -   -   -  20 22 mph 1012.9mb 60f 58f
8:20pm  -   -   -  18 22 mph 1012.9mb 60f 58f
8:10pm  -   -   -  18 25 mph 1012.8mb 60f 58f
8:00pm  -   -   -  18 20 mph 1012.9mb 60f 58f
7:50pm 4.5ft 10s 7s 18 22 mph 1012.8mb 60f 59f
7:40pm 4.5ft  -  7s 18 22 mph 1012.9mb 60f 59f
7:30pm  -   -   -  16 20 mph 1013mb 60f 59f
7:20pm  -   -   -  18 22 mph 1013mb 60f 59f
7:10pm  -   -   -  18 20 mph 1012.9mb 60f 59f
7:00pm  -   -   -  18 22 mph 1013mb 60f 59f
6:50pm 5ft 9s 7s 16 22 mph 1013mb 60f 59f
6:40pm 5ft  -  7s 18 20 mph 1012.9mb 61f 59f
6:30pm  -   -   -  16 18 mph 1013mb 61f 59f
6:20pm  -   -   -  16 20 mph 1013mb 61f 59f
6:10pm  -   -   -  16 20 mph 1013mb 61f 59f
6:00pm  -   -   -  13 18 mph 1013mb 60f 59f
5:50pm 5ft 10s 8s 13 18 mph 1012.9mb 60f 59f
5:40pm  -   -   -  13 16 mph 1013mb 60f 59f
5:30pm  -   -   -  13 16 mph 1013mb 61f 59f
5:20pm  -   -   -  13 18 mph 1013.1mb 60f 59f
5:10pm  -   -   -  13 18 mph 1013mb 61f 59f
5:00pm  -   -   -  13 18 mph 1013mb 61f 59f
4:50pm 4.5ft 12s 8s 11 16 mph 1013.1mb 61f 59f
4:40pm 4.5ft  -  8s 11 16 mph 1013.1mb 61f 59f
4:30pm  -   -   -  11 16 mph 1013.1mb 61f 59f
4:20pm  -   -   -  11 16 mph 1013mb 61f 59f
4:10pm  -   -   -  11 16 mph 1013.4mb 61f 59f
4:00pm  -   -   -  9 16 mph 1013.4mb 61f 59f
3:50pm 5ft 16s 9s 9 11 mph 1013.5mb 60f 59f
3:40pm  -   -   -  9 11 mph 1013.6mb 60f 59f
3:30pm  -   -   -  9 11 mph 1013.8mb - 59f
3:20pm  -   -   -  7 9 mph 1013.9mb 61f 59f
3:10pm  -   -   -  7 9 mph 1014mb 61f 59f
3:00pm  -   -   -  7 9 mph 1014mb 61f 59f
2:50pm 4.5ft 16s 9s 7 11 mph 1013.9mb 61f 59f
2:40pm 4.5ft  -  9s 7 9 mph 1014mb 61f 58f
2:30pm  -   -   -  7 9 mph 1014mb 61f 58f
2:20pm  -   -   -  7 9 mph 1014mb 61f 58f
2:10pm  -   -   -  7 9 mph 1014mb 61f 58f
2:00pm  -   -   -  4 7 mph 1014mb 60f 59f
1:50pm 5ft 16s 10s 4 7 mph 1014mb 60f 59f
1:40pm  -   -   -  4 7 mph 1014mb 60f 59f
1:30pm  -   -   -  4 7 mph 1014mb 60f 59f
1:20pm  -   -   -  4 7 mph 1014mb 60f 58f
1:10pm  -   -   -  4 7 mph 1014mb 60f 58f
1:00pm  -   -   -  2 4 mph 1014.4mb 60f 58f
12:50pm 4.5ft 16s 8s 4 7 mph 1014.3mb 60f 58f
12:40pm  -   -   -  4 7 mph 1014mb 60f 58f
12:30pm  -   -   -  4 7 mph 1014mb 60f 58f
12:20pm  -   -   -  4 7 mph 1014mb 60f 58f
12:10pm  -   -   -  4 7 mph 1013.9mb 59f 58f
12:00pm  -   -   -  4 7 mph 1013.8mb 58f 57f
11:50am 4.5ft 16s 8s 4 7 mph 1013.6mb 58f 57f
11:40am  -   -   -  7 9 mph 1013.5mb 58f 57f
11:30am  -   -   -  7 7 mph 1013.6mb 58f 57f
11:20am  -   -   -  4 9 mph 1013.6mb 58f 57f
11:10am  -   -   -  7 9 mph 1013.5mb 58f 57f
11:00am  -   -   -  7 9 mph 1013.4mb 58f 57f
10:50am 4.5ft 10s 8s 7 9 mph 1013.4mb 58f 57f
10:40am 4.5ft  -  8s 7 9 mph 1013.3mb 58f 57f
10:30am  -   -   -  7 9 mph 1013.1mb 58f 57f
10:20am  -   -   -  7 9 mph 1013mb 59f 57f
10:10am  -   -   -  7 9 mph 1013.1mb 59f 57f
10:00am  -   -   -  7 9 mph 1013mb 59f 57f
9:50am 5ft 17s 9s 7 9 mph 1013.1mb 59f 57f
9:40am 5ft  -  9s 7 9 mph 1013mb 59f 57f
9:30am  -   -   -  7 9 mph 1013mb 59f 57f
9:20am  -   -   -  7 9 mph 1013.1mb 60f 57f
9:10am  -   -   -  4 7 mph 1013.1mb 60f 57f
9:00am  -   -   -  4 7 mph 1013mb 60f 57f
8:50am 5ft 16s 8s 4 7 mph 1013mb 60f 57f
8:40am  -   -   -  7 9 mph 1013mb 60f 57f
8:30am  -   -   -  4 7 mph 1013mb 60f 57f
8:20am  -   -   -  4 7 mph 1013mb 60f 57f
8:10am  -   -   -  4 4 mph 1013mb 60f 57f
8:00am  -   -   -  4 4 mph 1012.9mb 59f 57f
7:50am 5ft 16s 8s 4 7 mph 1012.8mb 59f 57f
7:40am 5ft  -  8s 7 9 mph 1012.6mb 59f 57f
7:30am  -   -   -  7 9 mph 1012.6mb 59f 57f
7:20am  -   -   -  7 7 mph 1012.6mb 59f 57f
7:10am  -   -   -  7 7 mph 1012.5mb 59f 57f
7:00am  -   -   -  7 9 mph 1012.5mb 59f 57f
6:50am 5ft 10s 8s 7 7 mph 1012.5mb 59f 57f
6:40am 5ft  -  8s 7 9 mph 1012.5mb 59f 57f
6:30am  -   -   -  7 9 mph 1012.3mb 59f 57f
6:20am  -   -   -  7 9 mph 1012.1mb 59f 57f
6:10am  -   -   -  7 9 mph 1012.1mb 59f 57f
6:00am  -   -   -  7 9 mph 1012mb 59f 57f
5:50am 5ft 9s 8s 7 9 mph 1012mb 58f 57f
5:40am 5ft  -  8s 7 9 mph 1012mb 58f 57f
5:30am  -   -   -  4 7 mph 1012mb 58f 57f
5:20am  -   -   -  4 7 mph 1012mb 58f 57f
5:10am  -   -   -  4 7 mph 1011.9mb 59f 57f
5:00am  -   -   -  4 7 mph 1011.9mb 59f 57f
4:50am 5ft 11s 8s 4 7 mph 1011.9mb 59f 57f
4:40am 5ft  -  8s 4 7 mph 1011.9mb 59f 57f
4:30am  -   -   -  4 7 mph 1011.9mb 59f 57f
4:20am  -   -   -  4 7 mph 1011.9mb 58f 57f
4:10am  -   -   -  4 4 mph 1011.8mb 58f 57f
4:00am  -   -   -  2 7 mph 1011.8mb 58f 57f
3:50am 5ft 11s 8s 2 4 mph 1011.6mb 59f 57f
3:40am  -   -   -  4 7 mph 1011.6mb 59f 57f
3:30am  -   -   -  4 7 mph 1011.8mb 59f 57f
3:20am  -   -   -  4 7 mph 1011.6mb 58f 57f
3:10am  -   -   -  4 7 mph 1011.6mb 58f 57f
3:00am  -   -   -  4 7 mph 1011.5mb 58f 57f
2:50am 5ft 11s 8s 4 7 mph 1011.5mb 58f 57f
2:40am 5ft  -  8s 4 7 mph 1011.5mb 58f 57f
2:30am  -   -   -  4 7 mph 1011.5mb 58f 57f
2:20am  -   -   -  4 7 mph 1011.5mb 58f 57f
2:10am  -   -   -  2 7 mph 1011.6mb 58f 57f
2:00am  -   -   -  4 7 mph 1011.6mb 58f 57f
1:50am 4.5ft 17s 8s 4 9 mph 1011.6mb 58f 57f
1:40am 4.5ft  -  8s 7 9 mph 1011.6mb 58f 57f
1:30am  -   -   -  7 9 mph 1011.8mb 58f 57f
1:20am  -   -   -  7 9 mph 1011.8mb 59f 57f
1:10am  -   -   -  7 7 mph 1011.6mb 58f 57f
1:00am  -   -   -  7 9 mph 1011.5mb 58f 57f
12:50am 4.5ft 11s 8s 4 7 mph 1011.5mb 58f 57f
12:40am 4.5ft  -  8s 4 7 mph 1011.5mb 58f 57f
12:30am  -   -   -  4 7 mph 1011.5mb 58f 57f
12:20am  -   -   -  4 4 mph 1011.5mb 58f 57f
12:10am  -   -   -  4 4 mph 1011.5mb 58f 57f
12:00am  -   -   -  2 7 mph 1011.5mb 58f 57f
Thu 06/22 11:50pm 4.5ft 11s 8s 2 4 mph 1011.4mb 58f 57f
11:40pm  -   -   -  2 4 mph 1011.3mb 58f 57f
11:30pm  -   -   -  2 4 mph 1011.3mb 58f 57f
11:20pm  -   -   -  4 7 mph 1011.3mb 58f 57f
11:10pm  -   -   -  4 9 mph 1011.3mb 58f 57f
11:00pm  -   -   -  2 7 mph 1011.3mb 57f 57f
10:50pm 5ft 11s 8s 2 4 mph 1011.1mb 58f 57f
10:40pm 5ft  -  8s 2 4 mph 1011.1mb 59f 57f
10:30pm  -   -   -  4 7 mph 1011mb 58f 57f
10:20pm  -   -   -  4 9 mph 1011mb 58f 57f
10:10pm  -   -   -  4 7 mph 1010.8mb 58f 57f
10:00pm  -   -   -  4 7 mph 1010.8mb 58f 57f
9:50pm 5ft 17s 8s 7 7 mph 1010.5mb 59f 57f
9:40pm  -   -   -  4 7 mph 1010.4mb 59f 58f
9:30pm  -   -   -  7 9 mph 1010.3mb 59f 58f
9:20pm  -   -   -  4 9 mph 1010.3mb 58f 58f
9:10pm  -   -   -  4 4 mph 1010.3mb 58f 58f
9:00pm  -   -   -  4 9 mph 1010.3mb 58f 58f
8:50pm 5ft 11s 8s 7 9 mph 1010.1mb 58f 58f
8:40pm 5ft  -  8s 4 7 mph 1010.1mb 57f 58f
8:30pm  -   -   -  7 9 mph 1010mb 58f 58f
8:20pm  -   -   -  7 9 mph 1009.9mb 58f 58f
8:10pm  -   -   -  7 9 mph 1009.9mb 58f 58f
8:00pm  -   -   -  7 9 mph 1009.8mb 58f 58f
7:50pm 5ft 15s 8s 7 9 mph 1009.6mb 58f 58f
7:40pm 5ft  -  8s 7 9 mph 1009.5mb 59f 58f
7:30pm  -   -   -  7 7 mph 1009.5mb 58f 58f
7:20pm  -   -   -  7 9 mph 1009.5mb 59f 58f
7:10pm  -   -   -  7 9 mph 1009.6mb 59f 58f
7:00pm  -   -   -  4 7 mph 1009.5mb 59f 58f
6:50pm 5.5ft 11s 8s 4 7 mph 1009.5mb 59f 58f
6:40pm 5.5ft  -  8s 4 7 mph 1009.5mb 59f 58f
6:30pm  -   -   -  7 9 mph 1009.5mb 59f 58f
6:20pm  -   -   -  7 9 mph 1009.5mb 59f 58f
6:10pm  -   -   -  7 9 mph 1009.4mb 59f 58f
6:00pm  -   -   -  7 9 mph 1009.5mb 59f -
5:50pm 6ft 11s  -  7 9 mph 1009.5mb 59f 58f
5:40pm  -   -   -  9 11 mph 1009.5mb 59f 58f
5:30pm  -   -   -  9 9 mph 1009.5mb 59f 59f
5:20pm  -   -   -  9 11 mph 1009.5mb 59f 59f
5:10pm  -   -   -  9 11 mph 1009.8mb 58f 59f
5:00pm  -   -   -  9 11 mph 1009.8mb 59f 58f
4:50pm 6ft 11s 8s 9 9 mph 1009.8mb 59f 59f
4:40pm 6ft  -  8s 9 11 mph 1009.8mb 58f 59f
4:30pm  -   -   -  9 9 mph 1009.8mb 59f 58f
4:20pm  -   -   -  7 9 mph 1009.8mb 58f 58f
4:10pm  -   -   -  7 9 mph 1009.8mb 58f 58f
4:00pm  -   -   -  7 9 mph 1009.9mb 59f 58f
3:50pm 5.5ft 11s 8s 9 11 mph 1010mb 60f 58f
3:40pm  -   -   -  9 11 mph 1010mb 59f 58f
3:30pm  -   -   -  9 9 mph 1010mb 59f 58f
3:20pm  -   -   -  9 9 mph 1010mb 59f 58f
3:10pm  -   -   -  9 11 mph 1010mb 60f 58f
3:00pm  -   -   -  9 11 mph 1010.1mb 60f 58f
2:50pm 5.5ft 11s 8s 9 11 mph 1010.1mb 60f 58f
2:40pm  -   -   -  9 11 mph 1010.3mb 59f 58f
2:30pm  -   -   -  9 11 mph 1010.3mb 60f 58f
2:20pm  -   -   -  7 9 mph 1010.3mb 60f 58f
2:10pm  -   -   -  7 9 mph 1010.4mb 60f 59f
2:00pm  -   -   -  7 9 mph 1010.4mb 59f 59f
1:50pm 5ft 13s 8s 7 11 mph 1010.1mb 59f 59f
1:40pm  -   -   -  7 11 mph 1010.3mb 59f 58f
1:30pm  -   -   -  7 9 mph 1010.4mb 59f 58f
1:20pm  -   -   -  7 9 mph 1010.5mb 60f 58f
1:10pm  -   -   -  7 9 mph 1010.5mb 58f 58f
1:00pm  -   -   -  7 9 mph 1010.5mb 60f 58f
12:50pm 5ft 10s 8s 7 9 mph 1010.5mb 59f 58f
12:40pm 5ft  -  8s 7 9 mph 1010.5mb 59f 58f
12:30pm  -   -   -  4 7 mph 1010.4mb 59f 57f
12:20pm  -   -   -  4 7 mph 1010.4mb 59f 57f
12:10pm  -   -   -  7 9 mph 1010.5mb 59f 57f
12:00pm  -   -   -  7 9 mph 1010.4mb - 57f
11:50am 5ft 11s 8s 7 9 mph 1010.4mb 59f 57f
11:40am 5ft  -  8s 7 9 mph 1010mb 59f 57f
11:30am  -   -   -  7 9 mph 1010.1mb 59f 57f
11:20am  -   -   -  7 9 mph 1010mb 59f 56f
11:10am  -   -   -  7 9 mph 1010mb 59f 56f
11:00am  -   -   -  7 9 mph 1010mb 59f 56f
10:50am 5.5ft 11s 8s 7 9 mph 1009.8mb 59f 56f
10:40am  -   -   -  4 7 mph 1009.5mb 59f 56f
10:30am  -   -   -  4 9 mph 1009.5mb 59f 56f
10:20am  -   -   -  4 7 mph 1009.4mb 59f 56f
10:10am  -   -   -  4 7 mph 1009.3mb 60f 56f
10:00am  -   -   -  4 7 mph 1009.3mb 59f 56f
9:50am 5.5ft 13s 8s 4 4 mph 1009.3mb 59f 55f
9:40am  -   -   -  4 7 mph 1009.1mb 59f 55f
9:30am  -   -   -  4 7 mph 1009.1mb 59f 55f
9:20am  -   -   -  2 4 mph 1009.3mb 60f 55f
9:10am  -   -   -  4 7 mph 1009mb 60f 55f
9:00am  -   -   -  4 7 mph 1009mb 60f 55f
8:50am 6ft 11s 8s 2 7 mph 1008.9mb 60f 55f
8:40am 6ft  -  8s 4 7 mph 1008.8mb 59f 55f
8:30am  -   -   -  2 4 mph 1008.8mb 59f 55f
8:20am  -   -   -  2 4 mph 1008.8mb 59f 55f
8:10am  -   -   -  2 4 mph 1008.5mb 59f 55f
8:00am  -   -   -  2 4 mph 1008.5mb 59f 55f
7:50am 6ft 11s 7s  -  4 mph 1008.4mb 59f 55f
7:40am 6ft  -  7s 2 4 mph 1008.4mb 59f 55f
7:30am  -   -   -  2 4 mph 1008.3mb 59f 55f
7:20am  -   -   -   -  2 mph 1008.1mb 59f 55f
7:10am  -   -   -  2 4 mph 1008mb 59f 55f
7:00am  -   -   -  2 7 mph 1008mb 59f 55f
6:50am 6ft 10s 8s 4 7 mph 1007.9mb 59f 55f
6:40am  -   -   -  7 9 mph 1007.8mb 59f 55f
6:30am  -   -   -  7 9 mph 1007.6mb 59f 55f
6:20am  -   -   -  7 9 mph 1007.4mb 58f 55f
6:10am  -   -   -  7 9 mph 1007.4mb 58f 55f
6:00am  -   -   -  7 11 mph 1007.1mb 58f 55f
5:50am 7ft 11s 8s 7 9 mph 1007mb 58f 55f
5:40am 7ft  -  8s 7 11 mph 1006.9mb 58f 55f
5:30am  -   -   -  9 13 mph 1006.9mb 58f 55f
5:20am  -   -   -  9 13 mph 1006.9mb 58f 55f
5:10am  -   -   -  9 11 mph 1006.8mb 58f 55f
5:00am  -   -   -  9 11 mph 1006.8mb 58f 55f
4:50am 7ft 13s 8s 9 11 mph 1006.8mb 58f 55f
4:40am 7ft  -  8s 9 13 mph 1006.6mb 58f 55f
4:30am  -   -   -  11 13 mph 1006.8mb 58f 55f
4:20am  -   -   -  11 13 mph 1006.8mb 58f 55f
4:10am  -   -   -  11 13 mph 1006.9mb - 55f
4:00am  -   -   -  11 13 mph 1006.8mb 58f 55f
3:50am 6.5ft 11s 8s 11 13 mph 1006.6mb 58f 55f
3:40am 6.5ft  -  8s 11 13 mph 1006.6mb 58f 55f
3:30am  -   -   -  11 16 mph 1006.6mb 58f 55f
3:20am  -   -   -  11 16 mph 1006.5mb 58f 55f
3:10am  -   -   -  13 16 mph 1006.5mb 58f 55f
3:00am  -   -   -  11 16 mph 1006.5mb 58f 55f
2:50am 6ft 12s 8s 13 16 mph 1006.5mb 58f 55f
2:40am  -   -   -  13 16 mph 1006.5mb 58f 55f
2:30am  -   -   -  13 18 mph 1006.5mb 58f 55f
2:20am  -   -   -  13 18 mph 1006.5mb 58f 55f
2:10am  -   -   -  13 18 mph 1006.5mb 58f 55f
2:00am  -   -   -  13 18 mph 1006.5mb 58f 55f
1:50am 6ft 12s 7s 16 18 mph 1006.5mb 58f 55f
1:40am 6ft  -  7s 16 20 mph 1006.5mb 58f 55f
1:30am  -   -   -  16 18 mph 1006.5mb 58f 55f
1:20am  -   -   -  16 18 mph 1006.4mb 58f 55f
1:10am  -   -   -  16 22 mph 1006.5mb 58f 55f
1:00am  -   -   -  18 20 mph 1006.5mb 58f 55f
12:50am 6.5ft 10s 7s 16 20 mph 1006.5mb 58f 55f
12:40am 6.5ft  -  7s 16 20 mph 1006.5mb 58f 55f
12:30am  -   -   -  16 20 mph 1006.5mb 58f 55f
12:20am  -   -   -  16 20 mph 1006.5mb 58f 55f
12:10am  -   -   -  18 20 mph 1006.5mb 58f 55f
12:00am  -   -   -  18 22 mph 1006.5mb 57f 55f
Wed 06/21 11:50pm 7ft 10s 6s 18 22 mph 1006.5mb 57f 55f
11:40pm  -   -   -  18 25 mph 1006.5mb 58f 55f
11:30pm  -   -   -  18 25 mph 1006.5mb 57f 55f
11:20pm  -   -   -  20 25 mph 1006.4mb 57f 55f
11:10pm  -   -   -  20 25 mph 1006.5mb 57f 56f
11:00pm  -   -   -  20 25 mph 1006.5mb 58f 56f
10:50pm 7ft 11s 6s 20 25 mph 1006.5mb 58f 55f
10:40pm 7ft  -  6s 20 25 mph 1006.5mb 58f 56f
10:30pm  -   -   -  20 25 mph 1006.5mb 58f 56f
10:20pm  -   -   -  20 27 mph 1006.5mb 58f 56f
10:10pm  -   -   -  22 27 mph 1006.4mb 58f 56f
10:00pm  -   -   -  20 27 mph 1006.3mb 58f 56f
9:50pm 7.5ft 10s 7s 20 27 mph 1006.3mb 58f 56f
9:40pm  -   -   -  22 27 mph 1006mb 58f 56f
9:30pm  -   -   -  22 27 mph 1006mb 58f 56f
9:20pm  -   -   -  22 27 mph 1006mb 58f 56f
9:10pm  -   -   -  22 27 mph 1005.8mb 58f 56f
9:00pm  -   -   -  25 29 mph 1005.8mb 58f 56f
8:50pm 8.5ft 11s 7s 25 29 mph 1005.6mb 58f 56f
8:40pm  -   -   -  25 31 mph 1005.5mb - 56f
8:30pm  -   -   -  25 29 mph 1005.6mb 58f 56f
8:20pm  -   -   -  25 31 mph 1005.5mb 58f 56f
8:10pm  -   -   -  25 31 mph 1005.5mb 58f 56f
8:00pm  -   -   -  25 34 mph 1005.5mb 58f 56f
7:50pm 8ft 11s 6s 25 31 mph 1005.5mb 58f 56f
7:40pm  -   -   -  25 31 mph 1005.5mb 58f 56f
7:30pm  -   -   -  25 31 mph 1005.5mb 58f 56f
7:20pm  -   -   -  27 34 mph 1005.5mb 58f 56f
7:10pm  -   -   -  27 31 mph 1005.5mb 58f 56f
7:00pm  -   -   -  27 31 mph 1005.5mb 58f 56f
6:50pm 7.5ft 10s 6s 25 34 mph 1005.5mb 58f 56f
6:40pm  -   -   -  27 34 mph 1005.5mb 58f 56f
6:30pm  -   -   -  27 34 mph 1005.5mb 57f 56f
6:20pm  -   -   -  27 34 mph 1005.6mb 57f 56f
6:10pm  -   -   -  27 31 mph 1005.6mb 58f 56f
6:00pm  -   -   -  27 36 mph 1005.8mb 58f 57f
5:50pm 8ft 10s 6s 27 31 mph 1005.8mb 58f 57f
5:40pm 8ft  -  6s 27 34 mph 1005.8mb 58f 57f
5:30pm  -   -   -  25 34 mph 1005.9mb 57f 57f
5:20pm  -   -   -  27 34 mph 1006mb 58f 57f
5:10pm  -   -   -  27 34 mph 1006mb 58f 57f
5:00pm  -   -   -  27 34 mph 1006mb 57f 57f
4:50pm 8ft 11s 7s 27 34 mph 1006.3mb 58f 57f
4:40pm 8ft  -  7s 25 31 mph 1006.4mb 58f 57f
4:30pm  -   -   -  27 34 mph 1006.5mb 58f 57f
4:20pm  -   -   -  27 34 mph 1006.5mb 58f 57f
4:10pm  -   -   -  25 31 mph 1006.6mb 58f 57f
4:00pm  -   -   -  27 34 mph 1006.9mb 58f 57f
3:50pm 8ft 10s 6s 27 34 mph 1007mb 58f 57f
3:40pm  -   -   -  27 34 mph 1007mb 58f 57f
3:30pm  -   -   -  27 34 mph 1007.3mb 58f 57f
3:20pm  -   -   -  27 34 mph 1007.3mb 58f 56f
3:10pm  -   -   -  27 31 mph 1007.4mb 58f 56f
3:00pm  -   -   -  27 34 mph 1007.5mb 58f 56f
2:50pm 7.5ft 10s 6s 27 34 mph 1007.3mb 57f 56f
2:40pm  -   -   -  27 34 mph 1007.5mb 57f 56f
2:30pm  -   -   -  27 31 mph 1007.6mb 58f 56f
2:20pm  -   -   -  27 34 mph 1007.8mb 58f 56f
2:10pm  -   -   -  27 34 mph 1007.9mb 58f 56f
2:00pm  -   -   -  27 34 mph 1008mb 59f 56f
1:50pm 7ft 10s 6s 27 36 mph 1008mb 59f 56f
1:40pm  -   -   -  27 34 mph 1008mb 59f 56f
1:30pm  -   -   -  27 34 mph 1008.1mb 60f 56f
1:20pm  -   -   -  27 36 mph 1008.3mb 60f 56f
1:10pm  -   -   -  27 36 mph 1008.1mb 60f 56f
1:00pm  -   -   -  27 34 mph 1008.3mb 60f 56f
12:50pm 7ft 9s 6s 29 36 mph 1008.4mb 60f 56f
12:40pm  -   -   -  29 36 mph 1008.5mb 60f 56f
12:30pm  -   -   -  27 36 mph 1008.5mb 60f 56f
12:20pm  -   -   -  29 34 mph 1008.8mb 60f 56f
12:10pm  -   -   -  27 36 mph 1008.9mb 60f 56f
12:00pm  -   -   -  27 36 mph 1009mb 60f 56f
11:50am 8ft 10s 6s 27 34 mph 1009mb 60f 56f
11:40am  -   -   -  27 34 mph 1009mb 59f 56f
11:30am  -   -   -  27 34 mph 1009mb 59f 56f
11:20am  -   -   -  27 34 mph 1009.4mb 59f 56f
11:10am  -   -   -  27 34 mph 1009.3mb 59f 55f
11:00am  -   -   -  27 34 mph 1009.3mb 59f 55f
10:50am 8ft 10s 7s 27 34 mph 1009.3mb 58f 55f
10:40am 8ft  -  7s 27 34 mph 1009.3mb 58f 55f
10:30am  -   -   -  27 34 mph 1009mb 58f 56f
10:20am  -   -   -  27 34 mph 1009.3mb 58f 55f
10:10am  -   -   -  27 36 mph 1009mb 59f 55f
10:00am  -   -   -  27 34 mph 1009mb 59f 55f
9:50am 8ft 10s 6s 27 34 mph 1009.1mb 59f 55f
9:40am 8ft  -  6s 27 36 mph 1009.1mb 59f 55f
9:30am  -   -   -  29 34 mph 1009.1mb 60f -
9:20am  -   -   -  27 36 mph 1009.3mb 60f 55f
9:10am  -   -   -  27 31 mph 1009.1mb 60f 55f
9:00am  -   -   -  27 34 mph 1009.1mb 60f 55f
8:50am 8ft 9s 7s 27 34 mph 1009mb 59f 55f
8:40am 8ft  -  7s 27 34 mph 1009.1mb 59f 55f
8:30am  -   -   -  27 34 mph 1009.1mb 59f 55f
8:20am  -   -   -  27 34 mph 1009.1mb 59f 55f
8:10am  -   -   -  27 34 mph 1009.1mb 58f 55f
8:00am  -   -   -  27 34 mph 1009mb 58f 55f
7:50am 8ft 9s 6s 29 36 mph 1009mb 58f 55f
7:40am 8ft  -  6s 27 34 mph 1009mb 58f 55f
7:30am  -   -   -  29 36 mph 1009mb 58f 55f
7:20am  -   -   -  29 38 mph 1008.9mb 58f 55f
7:10am  -   -   -  29 36 mph 1008.9mb 57f 55f
7:00am  -   -   -  27 36 mph 1009mb 57f 55f
6:50am 8ft 10s 6s 27 36 mph 1009mb 57f 55f
6:40am  -   -   -  29 36 mph 1008.9mb 57f 55f
6:30am  -   -   -  29 36 mph 1008.8mb 57f 55f
6:20am  -   -   -  29 36 mph 1008.8mb - 55f
6:10am  -   -   -  29 38 mph 1008.6mb 57f 55f
6:00am  -   -   -  29 36 mph 1008.5mb 57f 55f
5:50am 8.5ft 10s 6s 29 36 mph 1008.5mb 57f 55f
5:40am 8.5ft  -  6s 29 36 mph 1008.5mb 57f 55f
5:30am  -   -   -  29 36 mph 1008.3mb 57f 55f
5:20am  -   -   -  29 36 mph 1008.5mb 57f 55f
5:10am  -   -   -  29 36 mph 1008.4mb 57f 55f
5:00am  -   -   -  29 38 mph 1008.4mb 57f 55f
4:50am 8ft 10s 6s 29 36 mph 1008.5mb 57f 55f
4:40am  -   -   -  29 36 mph 1008.4mb 57f 55f
4:30am  -   -   -  29 38 mph 1008.3mb 57f 55f
4:20am  -   -   -  31 38 mph 1008.3mb 57f 55f
4:10am  -   -   -  31 38 mph 1008.1mb 57f 55f
4:00am  -   -   -  31 40 mph 1008.1mb 57f 55f
3:50am 8ft 10s 6s 29 36 mph 1008.4mb 57f 55f
3:40am 8ft  -  6s 29 36 mph 1008.5mb 57f 55f
3:30am  -   -   -  29 38 mph 1008.4mb 57f 55f
3:20am  -   -   -  31 38 mph 1008.3mb 57f 55f
3:10am  -   -   -  31 38 mph 1008.4mb 57f 55f
3:00am  -   -   -  31 38 mph 1008.4mb 57f 55f
2:50am 7.5ft 10s 6s 29 38 mph 1008.3mb 57f 55f
2:40am 7.5ft  -  6s 29 36 mph 1008.6mb 57f 55f
2:30am  -   -   -  31 38 mph 1008.5mb 57f 55f
2:20am  -   -   -  29 36 mph 1008.6mb 57f 56f
2:10am  -   -   -  29 36 mph 1009mb 57f 56f
2:00am  -   -   -  31 36 mph 1008.8mb 57f 56f
1:50am 7.5ft 10s 6s 31 38 mph 1008.8mb 58f 56f
1:40am  -   -   -  31 38 mph 1008.9mb 58f 56f
1:30am  -   -   -  29 38 mph 1009mb 58f 56f
1:20am  -   -   -  29 38 mph 1008.8mb 58f 56f
1:10am  -   -   -  29 36 mph 1009mb 58f 56f
1:00am  -   -   -  29 34 mph 1009mb - 56f
12:50am 7ft 9s 5s 29 38 mph 1009.3mb 57f 56f
12:40am 7ft  -  5s 31 38 mph 1009.1mb 58f 56f
12:30am  -   -   -  31 38 mph 1009mb 58f 56f
12:20am  -   -   -  29 36 mph 1009.3mb 57f 56f
12:10am  -   -   -  29 34 mph 1009.5mb 57f 56f
12:00am  -   -   -  27 34 mph 1009.5mb 57f 56f
Tue 06/20 11:50pm 7ft 10s 6s 29 38 mph 1009.5mb 57f 56f
11:40pm 7ft  -  6s 29 36 mph 1009.5mb 57f 56f
11:30pm  -   -   -  29 36 mph 1009.5mb 57f 56f
11:20pm  -   -   -  29 36 mph 1009.5mb 57f 56f
11:10pm  -   -   -  29 36 mph 1009.6mb 57f 56f
11:00pm  -   -   -  29 36 mph 1009.8mb 57f 56f
10:50pm 8ft 10s 6s 29 36 mph 1009.5mb 57f 56f
10:40pm  -   -   -  29 36 mph 1009.5mb 57f 56f
10:30pm  -   -   -  29 36 mph 1009.5mb 57f 56f
10:20pm  -   -   -  29 34 mph 1009.5mb 57f 56f
10:10pm  -   -   -  27 34 mph 1009.5mb 57f 56f
10:00pm  -   -   -  29 34 mph 1009.8mb 57f 56f
9:50pm 7ft 9s 6s 29 36 mph 1009.5mb 57f 56f
9:40pm  -   -   -  27 34 mph 1009.5mb 58f 56f
9:30pm  -   -   -  27 34 mph 1009.5mb 58f 56f
9:20pm  -   -   -  27 34 mph 1009.6mb 58f 56f
9:10pm  -   -   -  27 34 mph 1009.5mb 58f -
9:00pm  -   -   -  29 34 mph 1009.4mb 58f 56f
8:50pm 7.5ft 8s 6s 27 34 mph 1009.3mb 58f 56f
8:40pm  -   -   -  27 34 mph 1009mb 58f 56f
8:30pm  -   -   -  29 36 mph 1009mb - 56f
8:20pm  -   -   -  29 36 mph 1009mb 58f 56f
8:10pm  -   -   -  29 34 mph 1009mb 58f 56f
8:00pm  -   -   -  29 36 mph 1009mb 58f 56f
7:50pm 7ft 5s 6s 29 36 mph 1009mb 58f 56f
7:40pm 7ft  -  6s 27 36 mph 1009mb 58f 56f
7:30pm  -   -   -  29 36 mph 1009mb 59f 56f
7:20pm  -   -   -  29 36 mph 1008.9mb 59f 57f
7:10pm  -   -   -  29 36 mph 1009mb 59f 57f
7:00pm  -   -   -  29 36 mph 1009mb 59f 57f
6:50pm 7ft 8s 6s 29 36 mph 1009mb 59f 56f
6:40pm  -   -   -  29 34 mph 1009mb 59f 56f
6:30pm  -   -   -  29 38 mph 1009mb 59f 56f
6:20pm  -   -   -  27 34 mph 1009mb 58f 57f
6:10pm  -   -   -  27 34 mph 1009mb 58f 57f
6:00pm  -   -   -  27 36 mph 1009.1mb 59f 57f
5:50pm 7ft 6s 6s 27 34 mph 1009mb 59f 57f
5:40pm 7ft  -  6s 27 36 mph 1009.1mb 59f 57f
5:30pm  -   -   -  29 34 mph 1009.4mb 59f 57f
5:20pm  -   -   -  29 36 mph 1009.5mb 59f 57f
5:10pm  -   -   -  29 36 mph 1009.5mb 59f 57f
5:00pm  -   -   -  29 34 mph 1009.6mb 59f 57f
4:50pm 7ft 9s 6s 29 36 mph 1009.6mb 59f 57f
4:40pm  -   -   -  27 36 mph 1009.9mb 59f 57f
4:30pm  -   -   -  27 36 mph 1010mb 60f 57f
4:20pm  -   -   -  29 36 mph 1010mb 59f 57f
4:10pm  -   -   -  27 34 mph 1010mb 59f 57f
4:00pm  -   -   -  27 36 mph 1010.1mb 59f 57f
3:50pm 7ft 10s  -  27 34 mph 1010.1mb 59f 57f
3:40pm 7ft  -  6s 25 31 mph 1010.4mb 60f 57f
3:30pm  -   -   -  27 31 mph 1010.5mb 60f 57f
3:20pm  -   -   -  27 34 mph 1010.6mb 60f 57f
3:10pm  -   -   -  27 31 mph 1010.8mb 60f 57f
3:00pm  -   -   -  25 31 mph 1011mb 60f 57f
2:50pm 6ft 9s 6s 25 31 mph 1011mb 59f 57f
2:40pm  -   -   -  25 29 mph 1011.1mb 59f 57f
2:30pm  -   -   -  25 29 mph 1011.3mb 59f 57f
2:20pm  -   -   -  25 31 mph 1011.4mb 59f 57f
2:10pm  -   -   -  25 29 mph 1011.4mb 60f 57f
2:00pm  -   -   -  25 29 mph 1011.5mb 59f 57f
1:50pm 6.5ft 9s 6s 25 29 mph 1011.5mb 59f 57f
1:40pm  -   -   -  22 29 mph 1011.6mb 60f 57f
1:30pm  -   -   -  22 29 mph 1011.9mb 60f 58f
1:20pm  -   -   -  22 29 mph 1011.9mb 60f 57f
1:10pm  -   -   -  25 29 mph 1012mb 60f 57f
1:00pm  -   -   -  22 29 mph 1012mb 60f 57f
12:50pm 6.5ft 9s 6s 22 27 mph 1012mb 60f 57f